TimeEDT,TemperatureF,Dew PointF,Humidity,Sea Level PressureIn,VisibilityMPH,Wind Direction,Wind SpeedMPH,Gust SpeedMPH,PrecipitationIn,Events,Conditions,WindDirDegrees,DateUTC
12:53 AM,59.0,46.9,64,30.14,10.0,East,3.5,-,N/A,,Clear,100,2013-06-05 04:53:00
1:53 AM,59.0,46.9,64,30.14,10.0,Calm,Calm,-,N/A,,Clear,0,2013-06-05 05:53:00
2:53 AM,57.0,46.9,69,30.14,10.0,Calm,Calm,-,N/A,,Clear,0,2013-06-05 06:53:00
3:53 AM,57.9,46.9,67,30.14,10.0,East,3.5,-,N/A,,Clear,90,2013-06-05 07:53:00
4:53 AM,57.0,46.9,69,30.14,10.0,Calm,Calm,-,N/A,,Clear,0,2013-06-05 08:53:00
5:53 AM,57.0,48.0,72,30.13,10.0,Calm,Calm,-,N/A,,Clear,0,2013-06-05 09:53:00
6:53 AM,57.0,46.9,69,30.15,10.0,Calm,Calm,-,N/A,,Partly Cloudy,0,2013-06-05 10:53:00
7:53 AM,57.9,46.9,67,30.16,10.0,East,3.5,-,N/A,,Partly Cloudy,100,2013-06-05 11:53:00
8:53 AM,61.0,44.1,54,30.14,10.0,East,6.9,-,N/A,,Scattered Clouds,100,2013-06-05 12:53:00
9:53 AM,64.0,42.1,45,30.12,10.0,ESE,9.2,-,N/A,,Partly Cloudy,110,2013-06-05 13:53:00
10:53 AM,66.9,41.0,39,30.11,10.0,East,8.1,-,N/A,,Clear,100,2013-06-05 14:53:00
11:53 AM,69.1,39.9,35,30.10,10.0,Variable,5.8,-,N/A,,Clear,0,2013-06-05 15:53:00
12:53 PM,71.1,44.1,38,30.08,10.0,Variable,3.5,-,N/A,,Clear,0,2013-06-05 16:53:00
1:53 PM,73.0,46.0,38,30.06,10.0,Variable,3.5,-,N/A,,Scattered Clouds,0,2013-06-05 17:53:00
2:53 PM,73.0,44.1,35,30.06,10.0,Variable,4.6,-,N/A,,Scattered Clouds,0,2013-06-05 18:53:00
3:53 PM,73.9,46.0,37,30.03,10.0,NNE,11.5,-,N/A,,Partly Cloudy,20,2013-06-05 19:53:00
4:53 PM,73.0,43.0,34,30.01,10.0,NE,9.2,17.3,N/A,,Mostly Cloudy,50,2013-06-05 20:53:00
5:53 PM,70.0,43.0,38,30.01,10.0,NE,10.4,-,N/A,,Scattered Clouds,40,2013-06-05 21:53:00
6:53 PM,69.1,42.1,38,30.00,10.0,NE,8.1,-,N/A,,Overcast,50,2013-06-05 22:53:00
7:53 PM,66.9,42.1,40,29.99,10.0,NE,5.8,-,N/A,,Overcast,40,2013-06-05 23:53:00
8:53 PM,66.0,43.0,43,29.99,10.0,Variable,5.8,-,N/A,,Partly Cloudy,0,2013-06-06 00:53:00
9:53 PM,64.9,44.1,47,29.99,10.0,Variable,5.8,-,N/A,,Mostly Cloudy,0,2013-06-06 01:53:00
10:53 PM,64.0,45.0,50,29.99,10.0,ENE,4.6,-,N/A,,Mostly Cloudy,60,2013-06-06 02:53:00
11:53 PM,63.0,46.9,56,29.99,10.0,NE,5.8,-,N/A,,Mostly Cloudy,40,2013-06-06 03:53:00